sensor_id;sensor_type;location;lat;lon;timestamp;pressure;altitude;pressure_sealevel;temperature;humidity
12468;BME280;57850;52.922;6.256;2022-08-19T00:01:43;100923.78;;;18.00;100.00
12468;BME280;57850;52.922;6.256;2022-08-19T00:04:14;100916.81;;;17.99;100.00
12468;BME280;57850;52.922;6.256;2022-08-19T00:06:42;100927.56;;;17.96;100.00
12468;BME280;57850;52.922;6.256;2022-08-19T00:09:12;100932.59;;;17.86;100.00
12468;BME280;57850;52.922;6.256;2022-08-19T00:11:40;100927.66;;;17.82;100.00
12468;BME280;57850;52.922;6.256;2022-08-19T00:14:10;100934.84;;;17.92;100.00
12468;BME280;57850;52.922;6.256;2022-08-19T00:16:37;100938.47;;;17.91;100.00
12468;BME280;57850;52.922;6.256;2022-08-19T00:19:04;100943.63;;;17.93;100.00
12468;BME280;57850;52.922;6.256;2022-08-19T00:21:31;100930.63;;;17.90;100.00
12468;BME280;57850;52.922;6.256;2022-08-19T00:23:58;100928.72;;;17.92;100.00
12468;BME280;57850;52.922;6.256;2022-08-19T00:26:25;100927.84;;;17.79;100.00
12468;BME280;57850;52.922;6.256;2022-08-19T00:28:51;100936.91;;;17.60;100.00
12468;BME280;57850;52.922;6.256;2022-08-19T00:31:19;100920.25;;;17.60;100.00
12468;BME280;57850;52.922;6.256;2022-08-19T00:33:46;100915.19;;;17.57;100.00
12468;BME280;57850;52.922;6.256;2022-08-19T00:36:13;100904.78;;;17.68;100.00
12468;BME280;57850;52.922;6.256;2022-08-19T00:38:39;100903.94;;;17.94;100.00
12468;BME280;57850;52.922;6.256;2022-08-19T00:41:09;100907.94;;;18.00;100.00
12468;BME280;57850;52.922;6.256;2022-08-19T00:43:36;100907.72;;;17.90;100.00
12468;BME280;57850;52.922;6.256;2022-08-19T00:46:04;100902.38;;;17.78;100.00
12468;BME280;57850;52.922;6.256;2022-08-19T00:48:33;100908.06;;;17.72;100.00
12468;BME280;57850;52.922;6.256;2022-08-19T00:51:00;100907.59;;;17.65;100.00
12468;BME280;57850;52.922;6.256;2022-08-19T00:53:28;100907.72;;;17.63;100.00
12468;BME280;57850;52.922;6.256;2022-08-19T00:55:58;100910.16;;;17.67;100.00
12468;BME280;57850;52.922;6.256;2022-08-19T00:58:29;100915.59;;;17.78;100.00
12468;BME280;57850;52.922;6.256;2022-08-19T01:00:56;100910.78;;;17.70;100.00
12468;BME280;57850;52.922;6.256;2022-08-19T01:03:22;100908.75;;;17.61;100.00
12468;BME280;57850;52.922;6.256;2022-08-19T01:05:52;100897.06;;;17.51;100.00
12468;BME280;57850;52.922;6.256;2022-08-19T01:08:20;100905.28;;;17.32;100.00
12468;BME280;57850;52.922;6.256;2022-08-19T01:10:50;100894.72;;;17.32;100.00
12468;BME280;57850;52.922;6.256;2022-08-19T01:13:21;100890.56;;;17.42;100.00
12468;BME280;57850;52.922;6.256;2022-08-19T01:15:50;100889.09;;;17.38;100.00
12468;BME280;57850;52.922;6.256;2022-08-19T01:18:19;100900.66;;;17.36;100.00
12468;BME280;57850;52.922;6.256;2022-08-19T01:20:47;100898.81;;;17.24;100.00
12468;BME280;57850;52.922;6.256;2022-08-19T01:23:15;100898.91;;;17.22;100.00
12468;BME280;57850;52.922;6.256;2022-08-19T01:25:45;100905.47;;;17.29;100.00
12468;BME280;57850;52.922;6.256;2022-08-19T01:28:16;100900.47;;;17.39;100.00
12468;BME280;57850;52.922;6.256;2022-08-19T01:30:46;100894.94;;;17.29;100.00
12468;BME280;57850;52.922;6.256;2022-08-19T01:33:14;100904.06;;;17.24;100.00
12468;BME280;57850;52.922;6.256;2022-08-19T01:35:41;100895.88;;;17.28;100.00
12468;BME280;57850;52.922;6.256;2022-08-19T01:38:09;100891.75;;;17.24;100.00
12468;BME280;57850;52.922;6.256;2022-08-19T01:40:39;100896.47;;;17.05;100.00
12468;BME280;57850;52.922;6.256;2022-08-19T01:43:07;100882.94;;;16.97;100.00
12468;BME280;57850;52.922;6.256;2022-08-19T01:45:35;100882.72;;;16.86;100.00
12468;BME280;57850;52.922;6.256;2022-08-19T01:48:03;100870.88;;;16.79;100.00
12468;BME280;57850;52.922;6.256;2022-08-19T01:50:35;100874.06;;;16.84;100.00
12468;BME280;57850;52.922;6.256;2022-08-19T01:53:04;100864.00;;;16.90;100.00
12468;BME280;57850;52.922;6.256;2022-08-19T01:55:31;100866.91;;;16.86;100.00
12468;BME280;57850;52.922;6.256;2022-08-19T01:58:01;100858.03;;;17.01;100.00
12468;BME280;57850;52.922;6.256;2022-08-19T02:00:29;100867.00;;;17.12;100.00
12468;BME280;57850;52.922;6.256;2022-08-19T02:02:57;100867.56;;;17.03;100.00
12468;BME280;57850;52.922;6.256;2022-08-19T02:05:23;100874.91;;;16.56;100.00
12468;BME280;57850;52.922;6.256;2022-08-19T02:07:50;100864.28;;;16.57;100.00
12468;BME280;57850;52.922;6.256;2022-08-19T02:10:19;100858.44;;;16.67;100.00
12468;BME280;57850;52.922;6.256;2022-08-19T02:12:47;100856.56;;;16.69;100.00
12468;BME280;57850;52.922;6.256;2022-08-19T02:15:17;100855.72;;;16.68;100.00
12468;BME280;57850;52.922;6.256;2022-08-19T02:17:44;100857.50;;;16.68;100.00
12468;BME280;57850;52.922;6.256;2022-08-19T02:20:12;100854.16;;;16.36;100.00
12468;BME280;57850;52.922;6.256;2022-08-19T02:22:38;100858.47;;;16.37;100.00
12468;BME280;57850;52.922;6.256;2022-08-19T02:25:07;100842.69;;;16.51;100.00
12468;BME280;57850;52.922;6.256;2022-08-19T02:27:34;100848.47;;;16.57;100.00
12468;BME280;57850;52.922;6.256;2022-08-19T02:30:04;100860.31;;;16.50;100.00
12468;BME280;57850;52.922;6.256;2022-08-19T02:32:32;100857.63;;;16.36;100.00
12468;BME280;57850;52.922;6.256;2022-08-19T02:34:59;100870.28;;;16.16;100.00
12468;BME280;57850;52.922;6.256;2022-08-19T02:37:25;100866.09;;;16.27;100.00
12468;BME280;57850;52.922;6.256;2022-08-19T02:40:10;100870.59;;;16.25;100.00
12468;BME280;57850;52.922;6.256;2022-08-19T02:42:37;100867.19;;;16.23;100.00
12468;BME280;57850;52.922;6.256;2022-08-19T02:45:04;100863.47;;;16.41;100.00
12468;BME280;57850;52.922;6.256;2022-08-19T02:47:32;100871.75;;;16.49;100.00
12468;BME280;57850;52.922;6.256;2022-08-19T02:50:00;100868.34;;;16.77;100.00
12468;BME280;57850;52.922;6.256;2022-08-19T02:52:27;100867.13;;;16.69;100.00
12468;BME280;57850;52.922;6.256;2022-08-19T02:54:54;100872.47;;;16.67;100.00
12468;BME280;57850;52.922;6.256;2022-08-19T02:57:22;100881.97;;;16.70;100.00
12468;BME280;57850;52.922;6.256;2022-08-19T02:59:49;100880.06;;;16.57;100.00
12468;BME280;57850;52.922;6.256;2022-08-19T03:02:16;100883.13;;;16.66;100.00
12468;BME280;57850;52.922;6.256;2022-08-19T03:04:43;100879.63;;;16.65;100.00
12468;BME280;57850;52.922;6.256;2022-08-19T03:07:13;100885.25;;;16.59;100.00
12468;BME280;57850;52.922;6.256;2022-08-19T03:09:40;100879.81;;;16.62;100.00
12468;BME280;57850;52.922;6.256;2022-08-19T03:12:07;100867.56;;;16.61;100.00
12468;BME280;57850;52.922;6.256;2022-08-19T03:14:34;100866.16;;;16.55;100.00
12468;BME280;57850;52.922;6.256;2022-08-19T03:17:01;100855.84;;;16.51;100.00
12468;BME280;57850;52.922;6.256;2022-08-19T03:19:29;100856.16;;;16.46;100.00
12468;BME280;57850;52.922;6.256;2022-08-19T03:21:58;100841.34;;;16.59;100.00
12468;BME280;57850;52.922;6.256;2022-08-19T03:24:25;100833.00;;;16.51;100.00
12468;BME280;57850;52.922;6.256;2022-08-19T03:26:53;100850.22;;;16.29;100.00
12468;BME280;57850;52.922;6.256;2022-08-19T03:29:23;100844.66;;;16.33;100.00
12468;BME280;57850;52.922;6.256;2022-08-19T03:31:50;100844.81;;;16.16;100.00
12468;BME280;57850;52.922;6.256;2022-08-19T03:34:20;100842.06;;;16.03;100.00
12468;BME280;57850;52.922;6.256;2022-08-19T03:36:47;100838.41;;;16.06;100.00
12468;BME280;57850;52.922;6.256;2022-08-19T03:39:16;100840.00;;;16.23;100.00
12468;BME280;57850;52.922;6.256;2022-08-19T03:41:44;100833.94;;;16.36;100.00
12468;BME280;57850;52.922;6.256;2022-08-19T03:44:12;100826.56;;;16.13;100.00
12468;BME280;57850;52.922;6.256;2022-08-19T03:46:38;100816.97;;;16.26;100.00
12468;BME280;57850;52.922;6.256;2022-08-19T03:49:05;100803.00;;;16.40;100.00
12468;BME280;57850;52.922;6.256;2022-08-19T03:51:34;100802.75;;;16.58;100.00
12468;BME280;57850;52.922;6.256;2022-08-19T03:54:04;100788.91;;;16.41;100.00
12468;BME280;57850;52.922;6.256;2022-08-19T03:56:33;100783.91;;;16.50;100.00
12468;BME280;57850;52.922;6.256;2022-08-19T03:59:01;100783.88;;;16.36;100.00
12468;BME280;57850;52.922;6.256;2022-08-19T04:01:28;100777.88;;;16.34;100.00
12468;BME280;57850;52.922;6.256;2022-08-19T04:03:56;100768.00;;;16.38;100.00
12468;BME280;57850;52.922;6.256;2022-08-19T04:06:25;100764.69;;;16.48;100.00
12468;BME280;57850;52.922;6.256;2022-08-19T04:08:53;100757.47;;;16.38;100.00
12468;BME280;57850;52.922;6.256;2022-08-19T04:11:22;100750.69;;;16.20;100.00
12468;BME280;57850;52.922;6.256;2022-08-19T04:13:52;100732.16;;;16.35;100.00
12468;BME280;57850;52.922;6.256;2022-08-19T04:16:19;100722.84;;;16.30;100.00
12468;BME280;57850;52.922;6.256;2022-08-19T04:18:47;100715.06;;;16.28;100.00
12468;BME280;57850;52.922;6.256;2022-08-19T04:21:16;100705.53;;;16.26;100.00
12468;BME280;57850;52.922;6.256;2022-08-19T04:23:43;100698.50;;;16.40;100.00
12468;BME280;57850;52.922;6.256;2022-08-19T04:26:12;100702.44;;;16.47;100.00
12468;BME280;57850;52.922;6.256;2022-08-19T04:28:39;100700.84;;;16.31;100.00
12468;BME280;57850;52.922;6.256;2022-08-19T04:31:12;100701.25;;;16.25;100.00
12468;BME280;57850;52.922;6.256;2022-08-19T04:33:39;100694.28;;;16.24;100.00
12468;BME280;57850;52.922;6.256;2022-08-19T04:36:06;100699.63;;;16.36;100.00
12468;BME280;57850;52.922;6.256;2022-08-19T04:38:33;100698.78;;;16.36;100.00
12468;BME280;57850;52.922;6.256;2022-08-19T04:41:04;100692.56;;;16.37;100.00
12468;BME280;57850;52.922;6.256;2022-08-19T04:43:48;100686.75;;;16.18;100.00
12468;BME280;57850;52.922;6.256;2022-08-19T04:46:17;100687.13;;;16.26;100.00
12468;BME280;57850;52.922;6.256;2022-08-19T04:48:45;100677.16;;;16.31;100.00
12468;BME280;57850;52.922;6.256;2022-08-19T04:51:12;100675.53;;;16.42;100.00
12468;BME280;57850;52.922;6.256;2022-08-19T04:53:41;100672.22;;;16.53;100.00
12468;BME280;57850;52.922;6.256;2022-08-19T04:56:10;100666.91;;;16.40;100.00
12468;BME280;57850;52.922;6.256;2022-08-19T04:58:38;100672.34;;;16.37;100.00
12468;BME280;57850;52.922;6.256;2022-08-19T05:01:08;100675.88;;;16.10;100.00
12468;BME280;57850;52.922;6.256;2022-08-19T05:03:36;100676.84;;;16.35;100.00
12468;BME280;57850;52.922;6.256;2022-08-19T05:06:05;100671.44;;;16.24;100.00
12468;BME280;57850;52.922;6.256;2022-08-19T05:08:34;100663.88;;;16.32;100.00
12468;BME280;57850;52.922;6.256;2022-08-19T05:11:01;100663.50;;;16.38;100.00
12468;BME280;57850;52.922;6.256;2022-08-19T05:13:28;100654.47;;;16.42;100.00
12468;BME280;57850;52.922;6.256;2022-08-19T05:15:56;100652.00;;;16.53;100.00
12468;BME280;57850;52.922;6.256;2022-08-19T05:18:23;100663.13;;;16.44;100.00
12468;BME280;57850;52.922;6.256;2022-08-19T05:21:11;100663.31;;;16.41;100.00
12468;BME280;57850;52.922;6.256;2022-08-19T05:23:55;100657.47;;;16.50;100.00
12468;BME280;57850;52.922;6.256;2022-08-19T05:26:22;100652.00;;;16.53;100.00
12468;BME280;57850;52.922;6.256;2022-08-19T05:28:51;100640.19;;;16.32;100.00
12468;BME280;57850;52.922;6.256;2022-08-19T05:31:18;100638.97;;;16.38;100.00
12468;BME280;57850;52.922;6.256;2022-08-19T05:33:44;100624.72;;;16.69;100.00
12468;BME280;57850;52.922;6.256;2022-08-19T05:36:12;100612.28;;;16.71;100.00
12468;BME280;57850;52.922;6.256;2022-08-19T05:38:39;100615.34;;;16.77;100.00
12468;BME280;57850;52.922;6.256;2022-08-19T05:41:07;100615.50;;;16.88;100.00
12468;BME280;57850;52.922;6.256;2022-08-19T05:43:34;100597.06;;;16.88;100.00
12468;BME280;57850;52.922;6.256;2022-08-19T05:46:00;100591.03;;;16.86;100.00
12468;BME280;57850;52.922;6.256;2022-08-19T05:48:27;100584.66;;;17.16;100.00
12468;BME280;57850;52.922;6.256;2022-08-19T05:50:54;100585.59;;;17.14;100.00
12468;BME280;57850;52.922;6.256;2022-08-19T05:53:26;100579.91;;;17.21;100.00
12468;BME280;57850;52.922;6.256;2022-08-19T05:55:52;100579.41;;;17.16;100.00
12468;BME280;57850;52.922;6.256;2022-08-19T05:58:18;100575.41;;;17.23;100.00
12468;BME280;57850;52.922;6.256;2022-08-19T06:00:45;100571.69;;;17.25;100.00
12468;BME280;57850;52.922;6.256;2022-08-19T06:03:11;100561.69;;;17.30;100.00
12468;BME280;57850;52.922;6.256;2022-08-19T06:05:38;100553.97;;;17.27;100.00
12468;BME280;57850;52.922;6.256;2022-08-19T06:08:04;100555.97;;;17.36;100.00
12468;BME280;57850;52.922;6.256;2022-08-19T06:10:34;100556.09;;;17.47;100.00
12468;BME280;57850;52.922;6.256;2022-08-19T06:13:02;100550.28;;;17.42;100.00
12468;BME280;57850;52.922;6.256;2022-08-19T06:15:29;100545.97;;;17.54;100.00
12468;BME280;57850;52.922;6.256;2022-08-19T06:17:56;100543.13;;;17.70;100.00
12468;BME280;57850;52.922;6.256;2022-08-19T06:20:23;100533.97;;;17.99;100.00
12468;BME280;57850;52.922;6.256;2022-08-19T06:22:50;100524.63;;;18.18;100.00
12468;BME280;57850;52.922;6.256;2022-08-19T06:25:17;100516.63;;;18.31;100.00
12468;BME280;57850;52.922;6.256;2022-08-19T06:27:45;100504.78;;;18.37;100.00
12468;BME280;57850;52.922;6.256;2022-08-19T06:30:12;100493.09;;;18.52;100.00
12468;BME280;57850;52.922;6.256;2022-08-19T06:32:39;100504.72;;;18.73;100.00
12468;BME280;57850;52.922;6.256;2022-08-19T06:35:06;100504.25;;;18.79;100.00
12468;BME280;57850;52.922;6.256;2022-08-19T06:37:33;100488.22;;;19.04;100.00
12468;BME280;57850;52.922;6.256;2022-08-19T06:39:59;100487.34;;;19.04;100.00
12468;BME280;57850;52.922;6.256;2022-08-19T06:42:26;100490.84;;;19.15;100.00
12468;BME280;57850;52.922;6.256;2022-08-19T06:44:53;100488.81;;;19.30;100.00
12468;BME280;57850;52.922;6.256;2022-08-19T06:47:21;100494.25;;;19.29;100.00
12468;BME280;57850;52.922;6.256;2022-08-19T06:49:47;100486.59;;;19.48;100.00
12468;BME280;57850;52.922;6.256;2022-08-19T06:52:14;100486.44;;;19.60;100.00
12468;BME280;57850;52.922;6.256;2022-08-19T06:54:41;100477.19;;;19.66;100.00
12468;BME280;57850;52.922;6.256;2022-08-19T06:57:08;100473.09;;;19.62;100.00
12468;BME280;57850;52.922;6.256;2022-08-19T06:59:38;100471.06;;;19.54;100.00
12468;BME280;57850;52.922;6.256;2022-08-19T07:02:07;100464.75;;;19.77;100.00
12468;BME280;57850;52.922;6.256;2022-08-19T07:04:35;100479.16;;;19.96;100.00
12468;BME280;57850;52.922;6.256;2022-08-19T07:07:05;100481.53;;;20.10;100.00
12468;BME280;57850;52.922;6.256;2022-08-19T07:09:33;100493.22;;;20.07;100.00
12468;BME280;57850;52.922;6.256;2022-08-19T07:12:03;100491.63;;;20.16;100.00
12468;BME280;57850;52.922;6.256;2022-08-19T07:14:30;100486.13;;;20.51;100.00
12468;BME280;57850;52.922;6.256;2022-08-19T07:16:56;100500.53;;;20.15;100.00
12468;BME280;57850;52.922;6.256;2022-08-19T07:19:26;100487.22;;;20.48;100.00
12468;BME280;57850;52.922;6.256;2022-08-19T07:21:53;100490.50;;;20.61;100.00
12468;BME280;57850;52.922;6.256;2022-08-19T07:24:22;100495.56;;;20.64;100.00
12468;BME280;57850;52.922;6.256;2022-08-19T07:26:50;100492.94;;;20.85;100.00
12468;BME280;57850;52.922;6.256;2022-08-19T07:29:18;100487.59;;;21.06;100.00
12468;BME280;57850;52.922;6.256;2022-08-19T07:31:48;100501.66;;;21.38;100.00
12468;BME280;57850;52.922;6.256;2022-08-19T07:34:15;100496.69;;;21.54;100.00
12468;BME280;57850;52.922;6.256;2022-08-19T07:36:43;100483.88;;;21.69;100.00
12468;BME280;57850;52.922;6.256;2022-08-19T07:39:13;100483.78;;;21.80;100.00
12468;BME280;57850;52.922;6.256;2022-08-19T07:41:41;100499.38;;;22.04;100.00
12468;BME280;57850;52.922;6.256;2022-08-19T07:44:08;100511.28;;;22.19;100.00
12468;BME280;57850;52.922;6.256;2022-08-19T07:46:38;100516.78;;;22.36;100.00
12468;BME280;57850;52.922;6.256;2022-08-19T07:49:06;100536.78;;;22.50;100.00
12468;BME280;57850;52.922;6.256;2022-08-19T07:51:33;100560.16;;;22.56;100.00
12468;BME280;57850;52.922;6.256;2022-08-19T07:54:01;100587.50;;;22.97;100.00
12468;BME280;57850;52.922;6.256;2022-08-19T07:56:27;100624.06;;;22.94;100.00
12468;BME280;57850;52.922;6.256;2022-08-19T07:58:54;100677.59;;;22.91;100.00
12468;BME280;57850;52.922;6.256;2022-08-19T08:01:24;100727.34;;;23.10;100.00
12468;BME280;57850;52.922;6.256;2022-08-19T08:03:53;100770.00;;;23.49;100.00
12468;BME280;57850;52.922;6.256;2022-08-19T08:06:37;100816.94;;;23.30;100.00
12468;BME280;57850;52.922;6.256;2022-08-19T08:09:26;100853.25;;;23.41;100.00
12468;BME280;57850;52.922;6.256;2022-08-19T08:11:58;100882.91;;;23.76;100.00
12468;BME280;57850;52.922;6.256;2022-08-19T08:14:27;100942.69;;;23.43;100.00
12468;BME280;57850;52.922;6.256;2022-08-19T08:16:56;101014.78;;;23.42;100.00
12468;BME280;57850;52.922;6.256;2022-08-19T08:19:25;101030.06;;;23.80;100.00
12468;BME280;57850;52.922;6.256;2022-08-19T08:21:53;101067.28;;;24.00;100.00
12468;BME280;57850;52.922;6.256;2022-08-19T08:24:20;101070.72;;;24.22;100.00
12468;BME280;57850;52.922;6.256;2022-08-19T08:26:48;101114.72;;;24.27;100.00
12468;BME280;57850;52.922;6.256;2022-08-19T08:29:14;101144.47;;;24.32;100.00
12468;BME280;57850;52.922;6.256;2022-08-19T08:31:43;101157.56;;;24.05;100.00
12468;BME280;57850;52.922;6.256;2022-08-19T08:34:11;101168.03;;;24.18;100.00
12468;BME280;57850;52.922;6.256;2022-08-19T08:36:39;101185.69;;;24.59;100.00
12468;BME280;57850;52.922;6.256;2022-08-19T08:39:07;101202.72;;;24.77;100.00
12468;BME280;57850;52.922;6.256;2022-08-19T08:41:39;101195.00;;;24.24;100.00
12468;BME280;57850;52.922;6.256;2022-08-19T08:44:14;101198.28;;;24.87;100.00
12468;BME280;57850;52.922;6.256;2022-08-19T08:46:46;101238.91;;;25.00;100.00
12468;BME280;57850;52.922;6.256;2022-08-19T08:49:24;101274.84;;;25.65;100.00
12468;BME280;57850;52.922;6.256;2022-08-19T08:51:59;101296.38;;;26.38;100.00
12468;BME280;57850;52.922;6.256;2022-08-19T08:54:31;101331.38;;;25.60;100.00
12468;BME280;57850;52.922;6.256;2022-08-19T08:56:58;101349.69;;;25.84;100.00
12468;BME280;57850;52.922;6.256;2022-08-19T08:59:30;101346.81;;;25.47;100.00
12468;BME280;57850;52.922;6.256;2022-08-19T09:01:58;101368.78;;;25.50;100.00
12468;BME280;57850;52.922;6.256;2022-08-19T09:04:25;101360.66;;;25.62;100.00
12468;BME280;57850;52.922;6.256;2022-08-19T09:07:09;101347.19;;;25.23;100.00
12468;BME280;57850;52.922;6.256;2022-08-19T09:09:43;101348.00;;;25.64;100.00
12468;BME280;57850;52.922;6.256;2022-08-19T09:12:16;101372.16;;;25.43;100.00
12468;BME280;57850;52.922;6.256;2022-08-19T09:14:51;101378.25;;;26.12;100.00
12468;BME280;57850;52.922;6.256;2022-08-19T09:17:20;101435.56;;;26.19;100.00
12468;BME280;57850;52.922;6.256;2022-08-19T09:19:55;101435.41;;;26.49;100.00
12468;BME280;57850;52.922;6.256;2022-08-19T09:22:22;101441.63;;;26.50;100.00
12468;BME280;57850;52.922;6.256;2022-08-19T09:24:49;101450.75;;;26.57;100.00
12468;BME280;57850;52.922;6.256;2022-08-19T09:27:17;101449.72;;;26.77;100.00
12468;BME280;57850;52.922;6.256;2022-08-19T09:29:44;101463.91;;;27.06;100.00
12468;BME280;57850;52.922;6.256;2022-08-19T09:32:11;101447.03;;;26.96;100.00
12468;BME280;57850;52.922;6.256;2022-08-19T09:34:38;101473.81;;;27.60;100.00
12468;BME280;57850;52.922;6.256;2022-08-19T09:37:04;101482.66;;;27.71;100.00
12468;BME280;57850;52.922;6.256;2022-08-19T09:39:31;101463.16;;;27.41;100.00
12468;BME280;57850;52.922;6.256;2022-08-19T09:41:58;101470.09;;;27.71;100.00
12468;BME280;57850;52.922;6.256;2022-08-19T09:44:25;101501.16;;;27.91;100.00
12468;BME280;57850;52.922;6.256;2022-08-19T09:46:51;101511.44;;;28.41;100.00
12468;BME280;57850;52.922;6.256;2022-08-19T09:49:19;101539.91;;;29.20;100.00
12468;BME280;57850;52.922;6.256;2022-08-19T09:51:49;101541.03;;;28.84;100.00
12468;BME280;57850;52.922;6.256;2022-08-19T09:54:15;101501.22;;;28.09;100.00
12468;BME280;57850;52.922;6.256;2022-08-19T09:56:42;101539.50;;;29.67;100.00
12468;BME280;57850;52.922;6.256;2022-08-19T09:59:09;101564.13;;;29.80;100.00
12468;BME280;57850;52.922;6.256;2022-08-19T10:01:38;101556.16;;;29.29;100.00
12468;BME280;57850;52.922;6.256;2022-08-19T10:04:04;101569.81;;;29.69;100.00
12468;BME280;57850;52.922;6.256;2022-08-19T10:06:36;101549.63;;;28.17;100.00
12468;BME280;57850;52.922;6.256;2022-08-19T10:09:04;101510.44;;;27.05;100.00
12468;BME280;57850;52.922;6.256;2022-08-19T10:11:32;101533.16;;;28.65;100.00
12468;BME280;57850;52.922;6.256;2022-08-19T10:13:59;101604.91;;;30.43;100.00
12468;BME280;57850;52.922;6.256;2022-08-19T10:16:26;101611.81;;;28.93;100.00
12468;BME280;57850;52.922;6.256;2022-08-19T10:18:53;101571.16;;;27.98;100.00
12468;BME280;57850;52.922;6.256;2022-08-19T10:21:22;101561.44;;;28.42;100.00
12468;BME280;57850;52.922;6.256;2022-08-19T10:23:53;101576.38;;;29.74;100.00
12468;BME280;57850;52.922;6.256;2022-08-19T10:26:22;101615.09;;;31.06;100.00
12468;BME280;57850;52.922;6.256;2022-08-19T10:28:49;101602.88;;;29.61;100.00
12468;BME280;57850;52.922;6.256;2022-08-19T10:31:19;101610.56;;;30.24;100.00
12468;BME280;57850;52.922;6.256;2022-08-19T10:33:46;101586.78;;;30.03;100.00
12468;BME280;57850;52.922;6.256;2022-08-19T10:36:15;101613.69;;;30.53;100.00
12468;BME280;57850;52.922;6.256;2022-08-19T10:38:43;101621.78;;;31.58;100.00
12468;BME280;57850;52.922;6.256;2022-08-19T10:41:13;101636.81;;;31.45;100.00
12468;BME280;57850;52.922;6.256;2022-08-19T10:43:41;101619.66;;;32.54;100.00
12468;BME280;57850;52.922;6.256;2022-08-19T10:46:09;101631.28;;;32.32;100.00
12468;BME280;57850;52.922;6.256;2022-08-19T10:48:36;101631.25;;;30.15;100.00
12468;BME280;57850;52.922;6.256;2022-08-19T10:51:04;101613.66;;;29.61;100.00
12468;BME280;57850;52.922;6.256;2022-08-19T10:53:48;101632.03;;;31.71;100.00
12468;BME280;57850;52.922;6.256;2022-08-19T10:56:16;101628.19;;;31.33;100.00
12468;BME280;57850;52.922;6.256;2022-08-19T10:59:00;101611.50;;;30.49;100.00
12468;BME280;57850;52.922;6.256;2022-08-19T11:01:28;101599.56;;;32.57;100.00
12468;BME280;57850;52.922;6.256;2022-08-19T11:03:57;101600.19;;;33.04;100.00
12468;BME280;57850;52.922;6.256;2022-08-19T11:06:24;101597.09;;;33.74;99.86
12468;BME280;57850;52.922;6.256;2022-08-19T11:08:51;101615.59;;;32.27;100.00
12468;BME280;57850;52.922;6.256;2022-08-19T11:11:19;101602.19;;;31.64;100.00
12468;BME280;57850;52.922;6.256;2022-08-19T11:13:45;101595.59;;;32.36;100.00
12468;BME280;57850;52.922;6.256;2022-08-19T11:16:14;101622.47;;;32.07;100.00
12468;BME280;57850;52.922;6.256;2022-08-19T11:18:43;101610.06;;;33.49;100.00
12468;BME280;57850;52.922;6.256;2022-08-19T11:21:12;101601.19;;;33.40;99.29
12468;BME280;57850;52.922;6.256;2022-08-19T11:23:39;101598.50;;;34.35;98.04
12468;BME280;57850;52.922;6.256;2022-08-19T11:26:06;101631.06;;;32.11;100.00
12468;BME280;57850;52.922;6.256;2022-08-19T11:28:34;101589.91;;;34.10;98.96
12468;BME280;57850;52.922;6.256;2022-08-19T11:31:00;101594.97;;;33.55;97.73
12468;BME280;57850;52.922;6.256;2022-08-19T11:33:29;101608.19;;;33.50;99.65
12468;BME280;57850;52.922;6.256;2022-08-19T11:35:57;101589.22;;;34.08;98.19
12468;BME280;57850;52.922;6.256;2022-08-19T11:38:24;101600.81;;;33.29;99.57
12468;BME280;57850;52.922;6.256;2022-08-19T11:40:56;101594.94;;;34.34;99.45
12468;BME280;57850;52.922;6.256;2022-08-19T11:43:22;101562.41;;;34.56;95.67
12468;BME280;57850;52.922;6.256;2022-08-19T11:45:50;101576.03;;;35.05;96.27
12468;BME280;57850;52.922;6.256;2022-08-19T11:48:17;101580.63;;;34.40;95.86
12468;BME280;57850;52.922;6.256;2022-08-19T11:50:47;101568.28;;;34.59;94.97
12468;BME280;57850;52.922;6.256;2022-08-19T11:53:14;101613.66;;;32.13;98.58
12468;BME280;57850;52.922;6.256;2022-08-19T11:55:41;101616.50;;;32.20;100.00
12468;BME280;57850;52.922;6.256;2022-08-19T11:58:08;101613.50;;;31.99;100.00
12468;BME280;57850;52.922;6.256;2022-08-19T12:00:34;101609.66;;;32.01;100.00
12468;BME280;57850;52.922;6.256;2022-08-19T12:03:03;101603.19;;;33.09;100.00
12468;BME280;57850;52.922;6.256;2022-08-19T12:05:29;101590.38;;;33.40;98.38
12468;BME280;57850;52.922;6.256;2022-08-19T12:07:56;101614.69;;;32.12;100.00
12468;BME280;57850;52.922;6.256;2022-08-19T12:10:23;101614.88;;;31.64;99.74
12468;BME280;57850;52.922;6.256;2022-08-19T12:12:50;101615.44;;;32.60;100.00
12468;BME280;57850;52.922;6.256;2022-08-19T12:15:16;101612.97;;;32.73;99.39
12468;BME280;57850;52.922;6.256;2022-08-19T12:17:43;101596.53;;;32.29;96.46
12468;BME280;57850;52.922;6.256;2022-08-19T12:20:13;101599.69;;;32.55;97.60
12468;BME280;57850;52.922;6.256;2022-08-19T12:22:41;101598.84;;;32.63;98.33
12468;BME280;57850;52.922;6.256;2022-08-19T12:25:09;101608.16;;;32.52;99.37
12468;BME280;57850;52.922;6.256;2022-08-19T12:27:36;101618.41;;;31.40;100.00
12468;BME280;57850;52.922;6.256;2022-08-19T12:30:03;101602.44;;;32.24;98.38
12468;BME280;57850;52.922;6.256;2022-08-19T12:32:30;101608.16;;;32.52;100.00
12468;BME280;57850;52.922;6.256;2022-08-19T12:34:56;101613.47;;;32.15;100.00
12468;BME280;57850;52.922;6.256;2022-08-19T12:37:24;101615.13;;;31.85;100.00
12468;BME280;57850;52.922;6.256;2022-08-19T12:39:51;101615.75;;;30.84;100.00
12468;BME280;57850;52.922;6.256;2022-08-19T12:42:18;101600.91;;;30.88;100.00
12468;BME280;57850;52.922;6.256;2022-08-19T12:44:44;101620.34;;;31.07;100.00
12468;BME280;57850;52.922;6.256;2022-08-19T12:47:12;101588.16;;;30.15;100.00